Hermiston, OR

7:14 AM PDT on September 01, 2014 (GMT -0700)
Tri-Cities | Change Station
CLOSE
Current Station
Airport
Location: Pasco,
Elevation: 407 ft
Nearby Weather Stations

Elev 407 ft 46.26 °N, 119.12 °W | Updated 21 minutes ago

Clear
Clear
50 °F
Feels Like 50 °F
N
0
Wind Variable Wind from North

Today
High -- | Low -- °F
--% Chance of Precip.
Yesterday
High -- | Low -- °F
Precip. -- in
6:18 AM 7:35 PM
Waxing Crescent, 41% visible
Pressure 30.04 in
Visibility 10.0 miles
Clouds Clear
Dew Point 48 °F
Humidity 93%
Rainfall 0.00 in
Snow Depth Not available.
UV 0 out of 12
Pollen 5.60 out of 12
Air Quality Not available.
Flu Activity Not available.
METAR KPSC 011353Z 00000KT 10SM CLR 10/09 A3004 RMK AO2 SLP172 T01000089

More Conditions Fewer Conditions

Pressure 30.04 in
Visibility 10.0 miles
Clouds Clear
Dew Point 48 °F
Humidity 93%
Rainfall 0.00 in
Snow Depth Not available.
UV 0 out of 12
Pollen 5.60 out of 12
Air Quality Not available.
Flu Activity Not available.
METAR KPSC 011353Z 00000KT 10SM CLR 10/09 A3004 RMK AO2 SLP172 T01000089

More Conditions Fewer Conditions

10-Day Weather Forecast

Almanac

Astronomy

Sep. 01, 2014 Rise Set
Actual Time 6:18 AM PDT 7:35 PM PDT
Civil Twilight 5:47 AM PDT 8:05 PM PDT
Nautical Twilight 5:10 AM PDT 8:42 PM PDT
Astronomical Twilight 4:30 AM PDT 9:22 PM PDT
Moon 1:30 PM PDT 11:18 PM PDT
Length of Visible Light 14h 18m
Length of Day
13h 16m
Tomorrow will be 3m 6s shorter.
Waxing Crescent, 41% of the Moon is Illuminated
Today
Waxing Crescent
Sep 2
First Quarter
Sep 8
Full
Sep 15
Last Quarter
Sep 24
New

Today's Extremes

State Highs State Lows

Community

WunderPhotos

Upload Photos

1,749,237 photos uploaded!

Nearby

Snow Depth

Station Depth Elevation
Lucky Strike 0 in 5050 ft
Madison Butte 0 in 5250 ft
High Ridge 0 in 4980 ft
Bourne 1 in 5800 ft
Gold Center 0 in 5340 ft

Earthquake Activity

City Distance Mag. Time & Date
No recent earthquake activity has been reported nearby.
Minimum magnitude displayed is 2.5.

Coastal Water Temperatures

Place Temperature
No Stations Reporting

Nearby Weather Stations